sensor_id;sensor_type;location;lat;lon;timestamp;temperature;humidity
65239;SHT30;51827;51.186;6.926;2022-08-16T00:00:38;23.36;64.79
65239;SHT30;51827;51.186;6.926;2022-08-16T00:01:42;23.30;64.87
65239;SHT30;51827;51.186;6.926;2022-08-16T00:02:42;23.24;65.10
65239;SHT30;51827;51.186;6.926;2022-08-16T00:03:43;23.27;65.00
65239;SHT30;51827;51.186;6.926;2022-08-16T00:04:43;23.29;64.85
65239;SHT30;51827;51.186;6.926;2022-08-16T00:05:44;23.30;64.92
65239;SHT30;51827;51.186;6.926;2022-08-16T00:06:44;23.24;65.11
65239;SHT30;51827;51.186;6.926;2022-08-16T00:07:44;23.29;65.00
65239;SHT30;51827;51.186;6.926;2022-08-16T00:08:44;23.23;65.07
65239;SHT30;51827;51.186;6.926;2022-08-16T00:09:44;23.26;65.05
65239;SHT30;51827;51.186;6.926;2022-08-16T00:10:45;23.30;64.85
65239;SHT30;51827;51.186;6.926;2022-08-16T00:11:45;23.29;64.81
65239;SHT30;51827;51.186;6.926;2022-08-16T00:12:46;23.30;64.77
65239;SHT30;51827;51.186;6.926;2022-08-16T00:13:47;23.23;64.88
65239;SHT30;51827;51.186;6.926;2022-08-16T00:14:47;23.30;64.83
65239;SHT30;51827;51.186;6.926;2022-08-16T00:15:48;23.22;64.90
65239;SHT30;51827;51.186;6.926;2022-08-16T00:16:48;23.23;64.84
65239;SHT30;51827;51.186;6.926;2022-08-16T00:17:48;23.23;64.84
65239;SHT30;51827;51.186;6.926;2022-08-16T00:18:48;23.24;64.75
65239;SHT30;51827;51.186;6.926;2022-08-16T00:19:52;23.24;64.73
65239;SHT30;51827;51.186;6.926;2022-08-16T00:20:52;23.24;64.73
65239;SHT30;51827;51.186;6.926;2022-08-16T00:21:55;23.24;64.63
65239;SHT30;51827;51.186;6.926;2022-08-16T00:22:55;23.26;64.57
65239;SHT30;51827;51.186;6.926;2022-08-16T00:23:59;23.19;64.67
65239;SHT30;51827;51.186;6.926;2022-08-16T00:24:59;23.18;64.72
65239;SHT30;51827;51.186;6.926;2022-08-16T00:25:59;23.23;64.57
65239;SHT30;51827;51.186;6.926;2022-08-16T00:27:00;23.26;64.54
65239;SHT30;51827;51.186;6.926;2022-08-16T00:28:00;23.23;64.60
65239;SHT30;51827;51.186;6.926;2022-08-16T00:29:04;23.20;64.60
65239;SHT30;51827;51.186;6.926;2022-08-16T00:30:05;23.18;64.70
65239;SHT30;51827;51.186;6.926;2022-08-16T00:31:05;23.12;64.87
65239;SHT30;51827;51.186;6.926;2022-08-16T00:32:05;23.15;64.78
65239;SHT30;51827;51.186;6.926;2022-08-16T00:33:06;23.12;64.73
65239;SHT30;51827;51.186;6.926;2022-08-16T00:34:06;23.13;64.73
65239;SHT30;51827;51.186;6.926;2022-08-16T00:35:28;23.15;64.70
65239;SHT30;51827;51.186;6.926;2022-08-16T00:36:27;23.09;64.84
65239;SHT30;51827;51.186;6.926;2022-08-16T00:37:27;23.03;64.99
65239;SHT30;51827;51.186;6.926;2022-08-16T00:38:27;23.05;64.91
65239;SHT30;51827;51.186;6.926;2022-08-16T00:39:27;23.06;64.83
65239;SHT30;51827;51.186;6.926;2022-08-16T00:40:32;23.10;64.82
65239;SHT30;51827;51.186;6.926;2022-08-16T00:41:33;23.10;64.70
65239;SHT30;51827;51.186;6.926;2022-08-16T00:42:33;23.09;64.70
65239;SHT30;51827;51.186;6.926;2022-08-16T00:43:34;23.00;64.89
65239;SHT30;51827;51.186;6.926;2022-08-16T00:44:35;23.05;64.80
65239;SHT30;51827;51.186;6.926;2022-08-16T00:46:56;23.09;64.67
65239;SHT30;51827;51.186;6.926;2022-08-16T00:47:56;23.06;64.76
65239;SHT30;51827;51.186;6.926;2022-08-16T00:48:57;23.06;64.77
65239;SHT30;51827;51.186;6.926;2022-08-16T00:49:57;22.96;65.02
65239;SHT30;51827;51.186;6.926;2022-08-16T00:50:58;22.98;64.99
65239;SHT30;51827;51.186;6.926;2022-08-16T00:51:59;23.00;64.87
65239;SHT30;51827;51.186;6.926;2022-08-16T00:52:59;22.98;64.81
65239;SHT30;51827;51.186;6.926;2022-08-16T00:53:59;22.98;64.92
65239;SHT30;51827;51.186;6.926;2022-08-16T00:55:00;23.00;64.76
65239;SHT30;51827;51.186;6.926;2022-08-16T00:56:01;23.02;64.73
65239;SHT30;51827;51.186;6.926;2022-08-16T00:57:02;22.99;64.86
65239;SHT30;51827;51.186;6.926;2022-08-16T00:58:03;22.98;64.83
65239;SHT30;51827;51.186;6.926;2022-08-16T00:59:04;22.94;64.94
65239;SHT30;51827;51.186;6.926;2022-08-16T01:00:06;22.95;64.99
65239;SHT30;51827;51.186;6.926;2022-08-16T01:01:07;22.89;65.08
65239;SHT30;51827;51.186;6.926;2022-08-16T01:02:08;22.91;65.03
65239;SHT30;51827;51.186;6.926;2022-08-16T01:03:10;22.86;65.16
65239;SHT30;51827;51.186;6.926;2022-08-16T01:04:11;22.84;65.22
65239;SHT30;51827;51.186;6.926;2022-08-16T01:05:12;22.84;65.19
65239;SHT30;51827;51.186;6.926;2022-08-16T01:06:12;22.84;65.21
65239;SHT30;51827;51.186;6.926;2022-08-16T01:07:13;22.84;65.21
65239;SHT30;51827;51.186;6.926;2022-08-16T01:08:14;22.86;65.07
65239;SHT30;51827;51.186;6.926;2022-08-16T01:09:16;22.86;65.08
65239;SHT30;51827;51.186;6.926;2022-08-16T01:10:16;22.91;64.96
65239;SHT30;51827;51.186;6.926;2022-08-16T01:11:17;22.92;64.88
65239;SHT30;51827;51.186;6.926;2022-08-16T01:12:17;22.89;65.01
65239;SHT30;51827;51.186;6.926;2022-08-16T01:13:19;22.86;65.10
65239;SHT30;51827;51.186;6.926;2022-08-16T01:14:24;22.81;65.18
65239;SHT30;51827;51.186;6.926;2022-08-16T01:15:25;22.81;65.08
65239;SHT30;51827;51.186;6.926;2022-08-16T01:16:26;22.88;64.98
65239;SHT30;51827;51.186;6.926;2022-08-16T01:17:27;22.85;65.11
65239;SHT30;51827;51.186;6.926;2022-08-16T01:18:30;22.88;64.97
65239;SHT30;51827;51.186;6.926;2022-08-16T01:19:33;22.84;65.11
65239;SHT30;51827;51.186;6.926;2022-08-16T01:20:37;22.86;65.13
65239;SHT30;51827;51.186;6.926;2022-08-16T01:25:05;22.88;65.03
65239;SHT30;51827;51.186;6.926;2022-08-16T01:26:05;22.89;65.06
65239;SHT30;51827;51.186;6.926;2022-08-16T01:27:08;22.81;65.15
65239;SHT30;51827;51.186;6.926;2022-08-16T01:28:10;22.84;65.08
65239;SHT30;51827;51.186;6.926;2022-08-16T01:29:15;22.79;65.13
65239;SHT30;51827;51.186;6.926;2022-08-16T01:30:25;22.81;65.20
65239;SHT30;51827;51.186;6.926;2022-08-16T01:31:26;22.82;65.21
65239;SHT30;51827;51.186;6.926;2022-08-16T01:32:30;22.84;65.21
65239;SHT30;51827;51.186;6.926;2022-08-16T01:33:30;22.85;65.07
65239;SHT30;51827;51.186;6.926;2022-08-16T01:34:30;22.79;65.20
65239;SHT30;51827;51.186;6.926;2022-08-16T01:36:34;22.79;65.23
65239;SHT30;51827;51.186;6.926;2022-08-16T01:37:49;22.72;65.41
65239;SHT30;51827;51.186;6.926;2022-08-16T01:38:50;22.72;65.48
65239;SHT30;51827;51.186;6.926;2022-08-16T01:39:50;22.75;65.37
65239;SHT30;51827;51.186;6.926;2022-08-16T01:40:51;22.73;65.38
65239;SHT30;51827;51.186;6.926;2022-08-16T01:41:52;22.76;65.36
65239;SHT30;51827;51.186;6.926;2022-08-16T01:42:52;22.75;65.37
65239;SHT30;51827;51.186;6.926;2022-08-16T01:43:53;22.76;65.35
65239;SHT30;51827;51.186;6.926;2022-08-16T01:44:56;22.75;65.44
65239;SHT30;51827;51.186;6.926;2022-08-16T01:46:03;22.75;65.36
65239;SHT30;51827;51.186;6.926;2022-08-16T01:47:04;22.65;65.72
65239;SHT30;51827;51.186;6.926;2022-08-16T01:48:04;22.66;65.60
65239;SHT30;51827;51.186;6.926;2022-08-16T01:50:05;22.56;65.86
65239;SHT30;51827;51.186;6.926;2022-08-16T01:51:05;22.59;65.73
65239;SHT30;51827;51.186;6.926;2022-08-16T01:52:08;22.62;65.69
65239;SHT30;51827;51.186;6.926;2022-08-16T01:53:09;22.66;65.53
65239;SHT30;51827;51.186;6.926;2022-08-16T01:54:10;22.61;65.60
65239;SHT30;51827;51.186;6.926;2022-08-16T01:55:10;22.56;65.70
65239;SHT30;51827;51.186;6.926;2022-08-16T01:56:10;22.59;65.74
65239;SHT30;51827;51.186;6.926;2022-08-16T01:57:10;22.55;65.85
65239;SHT30;51827;51.186;6.926;2022-08-16T01:58:14;22.54;65.79
65239;SHT30;51827;51.186;6.926;2022-08-16T01:59:15;22.58;65.72
65239;SHT30;51827;51.186;6.926;2022-08-16T02:00:15;22.55;65.79
65239;SHT30;51827;51.186;6.926;2022-08-16T02:01:15;22.59;65.64
65239;SHT30;51827;51.186;6.926;2022-08-16T02:02:16;22.59;65.74
65239;SHT30;51827;51.186;6.926;2022-08-16T02:03:16;22.56;65.76
65239;SHT30;51827;51.186;6.926;2022-08-16T02:04:17;22.61;65.61
65239;SHT30;51827;51.186;6.926;2022-08-16T02:05:17;22.62;65.49
65239;SHT30;51827;51.186;6.926;2022-08-16T02:06:17;22.59;65.68
65239;SHT30;51827;51.186;6.926;2022-08-16T02:07:18;22.58;65.62
65239;SHT30;51827;51.186;6.926;2022-08-16T02:08:19;22.59;65.58
65239;SHT30;51827;51.186;6.926;2022-08-16T02:09:20;22.58;65.65
65239;SHT30;51827;51.186;6.926;2022-08-16T02:10:21;22.54;65.61
65239;SHT30;51827;51.186;6.926;2022-08-16T02:11:22;22.56;65.62
65239;SHT30;51827;51.186;6.926;2022-08-16T02:12:22;22.61;65.52
65239;SHT30;51827;51.186;6.926;2022-08-16T02:13:22;22.58;65.63
65239;SHT30;51827;51.186;6.926;2022-08-16T02:14:24;22.59;65.55
65239;SHT30;51827;51.186;6.926;2022-08-16T02:15:25;22.59;65.51
65239;SHT30;51827;51.186;6.926;2022-08-16T02:16:26;22.61;65.49
65239;SHT30;51827;51.186;6.926;2022-08-16T02:17:26;22.58;65.46
65239;SHT30;51827;51.186;6.926;2022-08-16T02:18:26;22.61;65.40
65239;SHT30;51827;51.186;6.926;2022-08-16T02:19:27;22.62;65.32
65239;SHT30;51827;51.186;6.926;2022-08-16T02:20:29;22.62;65.37
65239;SHT30;51827;51.186;6.926;2022-08-16T02:21:29;22.62;65.39
65239;SHT30;51827;51.186;6.926;2022-08-16T02:22:30;22.61;65.41
65239;SHT30;51827;51.186;6.926;2022-08-16T02:23:30;22.62;65.42
65239;SHT30;51827;51.186;6.926;2022-08-16T02:24:31;22.58;65.51
65239;SHT30;51827;51.186;6.926;2022-08-16T02:25:31;22.59;65.37
65239;SHT30;51827;51.186;6.926;2022-08-16T02:26:32;22.52;65.47
65239;SHT30;51827;51.186;6.926;2022-08-16T02:27:35;22.49;65.67
65239;SHT30;51827;51.186;6.926;2022-08-16T02:28:35;22.52;65.56
65239;SHT30;51827;51.186;6.926;2022-08-16T02:29:36;22.54;65.52
65239;SHT30;51827;51.186;6.926;2022-08-16T02:30:36;22.58;65.42
65239;SHT30;51827;51.186;6.926;2022-08-16T02:31:36;22.56;65.39
65239;SHT30;51827;51.186;6.926;2022-08-16T02:32:37;22.54;65.53
65239;SHT30;51827;51.186;6.926;2022-08-16T02:33:37;22.55;65.55
65239;SHT30;51827;51.186;6.926;2022-08-16T02:34:38;22.48;65.63
65239;SHT30;51827;51.186;6.926;2022-08-16T02:35:39;22.41;65.83
65239;SHT30;51827;51.186;6.926;2022-08-16T02:36:39;22.41;65.80
65239;SHT30;51827;51.186;6.926;2022-08-16T02:37:40;22.44;65.74
65239;SHT30;51827;51.186;6.926;2022-08-16T02:38:40;22.41;65.81
65239;SHT30;51827;51.186;6.926;2022-08-16T02:39:40;22.37;65.89
65239;SHT30;51827;51.186;6.926;2022-08-16T02:40:41;22.25;66.18
65239;SHT30;51827;51.186;6.926;2022-08-16T02:41:42;22.27;66.17
65239;SHT30;51827;51.186;6.926;2022-08-16T02:42:43;22.20;66.34
65239;SHT30;51827;51.186;6.926;2022-08-16T02:43:44;22.22;66.31
65239;SHT30;51827;51.186;6.926;2022-08-16T02:44:44;22.27;66.13
65239;SHT30;51827;51.186;6.926;2022-08-16T02:45:44;22.32;66.04
65239;SHT30;51827;51.186;6.926;2022-08-16T02:46:45;22.34;65.95
65239;SHT30;51827;51.186;6.926;2022-08-16T02:47:45;22.34;65.94
65239;SHT30;51827;51.186;6.926;2022-08-16T02:48:45;22.28;66.02
65239;SHT30;51827;51.186;6.926;2022-08-16T02:49:45;22.30;65.92
65239;SHT30;51827;51.186;6.926;2022-08-16T02:50:46;22.31;65.87
65239;SHT30;51827;51.186;6.926;2022-08-16T02:51:46;22.28;66.03
65239;SHT30;51827;51.186;6.926;2022-08-16T02:52:46;22.24;65.99
65239;SHT30;51827;51.186;6.926;2022-08-16T02:53:47;22.28;65.93
65239;SHT30;51827;51.186;6.926;2022-08-16T02:54:49;22.28;65.89
65239;SHT30;51827;51.186;6.926;2022-08-16T02:55:50;22.21;66.01
65239;SHT30;51827;51.186;6.926;2022-08-16T02:56:50;22.24;66.05
65239;SHT30;51827;51.186;6.926;2022-08-16T02:57:50;22.28;65.95
65239;SHT30;51827;51.186;6.926;2022-08-16T02:58:51;22.30;65.80
65239;SHT30;51827;51.186;6.926;2022-08-16T02:59:51;22.30;65.85
65239;SHT30;51827;51.186;6.926;2022-08-16T03:00:52;22.32;65.79
65239;SHT30;51827;51.186;6.926;2022-08-16T03:01:52;22.31;65.82
65239;SHT30;51827;51.186;6.926;2022-08-16T03:02:55;22.31;65.80
65239;SHT30;51827;51.186;6.926;2022-08-16T03:03:56;22.24;66.01
65239;SHT30;51827;51.186;6.926;2022-08-16T03:04:56;22.28;65.94
65239;SHT30;51827;51.186;6.926;2022-08-16T03:05:56;22.31;65.86
65239;SHT30;51827;51.186;6.926;2022-08-16T03:06:56;22.17;66.34
65239;SHT30;51827;51.186;6.926;2022-08-16T03:07:57;22.25;66.08
65239;SHT30;51827;51.186;6.926;2022-08-16T03:08:58;22.27;66.01
65239;SHT30;51827;51.186;6.926;2022-08-16T03:09:58;22.21;66.04
65239;SHT30;51827;51.186;6.926;2022-08-16T03:10:58;22.27;65.95
65239;SHT30;51827;51.186;6.926;2022-08-16T03:11:58;22.27;65.94
65239;SHT30;51827;51.186;6.926;2022-08-16T03:12:59;22.08;66.42
65239;SHT30;51827;51.186;6.926;2022-08-16T03:13:59;22.20;66.16
65239;SHT30;51827;51.186;6.926;2022-08-16T03:14:59;22.15;66.24
65239;SHT30;51827;51.186;6.926;2022-08-16T03:15:59;22.12;66.29
65239;SHT30;51827;51.186;6.926;2022-08-16T03:17:00;22.12;66.31
65239;SHT30;51827;51.186;6.926;2022-08-16T03:18:00;22.18;66.14
65239;SHT30;51827;51.186;6.926;2022-08-16T03:19:00;22.18;66.14
65239;SHT30;51827;51.186;6.926;2022-08-16T03:20:00;22.20;66.08
65239;SHT30;51827;51.186;6.926;2022-08-16T03:21:00;22.20;66.05
65239;SHT30;51827;51.186;6.926;2022-08-16T03:22:01;22.22;65.93
65239;SHT30;51827;51.186;6.926;2022-08-16T03:23:01;22.21;65.95
65239;SHT30;51827;51.186;6.926;2022-08-16T03:24:01;22.25;65.87
65239;SHT30;51827;51.186;6.926;2022-08-16T03:25:04;22.25;65.75
65239;SHT30;51827;51.186;6.926;2022-08-16T03:26:05;22.21;65.93
65239;SHT30;51827;51.186;6.926;2022-08-16T03:27:05;22.20;65.85
65239;SHT30;51827;51.186;6.926;2022-08-16T03:28:06;22.21;65.95
65239;SHT30;51827;51.186;6.926;2022-08-16T03:29:06;22.21;65.80
65239;SHT30;51827;51.186;6.926;2022-08-16T03:30:17;22.27;65.67
65239;SHT30;51827;51.186;6.926;2022-08-16T03:31:17;22.27;65.59
65239;SHT30;51827;51.186;6.926;2022-08-16T03:32:18;22.21;65.80
65239;SHT30;51827;51.186;6.926;2022-08-16T03:33:18;22.25;65.66
65239;SHT30;51827;51.186;6.926;2022-08-16T03:34:18;22.25;65.65
65239;SHT30;51827;51.186;6.926;2022-08-16T03:35:20;22.25;65.48
65239;SHT30;51827;51.186;6.926;2022-08-16T03:36:23;22.28;65.38
65239;SHT30;51827;51.186;6.926;2022-08-16T03:37:23;22.34;65.27
65239;SHT30;51827;51.186;6.926;2022-08-16T03:38:24;22.37;65.26
65239;SHT30;51827;51.186;6.926;2022-08-16T03:39:25;22.40;65.15
65239;SHT30;51827;51.186;6.926;2022-08-16T03:40:25;22.40;65.11
65239;SHT30;51827;51.186;6.926;2022-08-16T03:41:26;22.40;65.01
65239;SHT30;51827;51.186;6.926;2022-08-16T03:42:26;22.44;65.00
65239;SHT30;51827;51.186;6.926;2022-08-16T03:43:26;22.47;64.95
65239;SHT30;51827;51.186;6.926;2022-08-16T03:44:27;22.45;64.90
65239;SHT30;51827;51.186;6.926;2022-08-16T03:45:27;22.47;64.89
65239;SHT30;51827;51.186;6.926;2022-08-16T03:46:27;22.47;64.84
65239;SHT30;51827;51.186;6.926;2022-08-16T03:47:28;22.32;65.19
65239;SHT30;51827;51.186;6.926;2022-08-16T03:48:30;22.35;65.17
65239;SHT30;51827;51.186;6.926;2022-08-16T03:49:33;22.37;65.17
65239;SHT30;51827;51.186;6.926;2022-08-16T03:50:33;22.40;65.17
65239;SHT30;51827;51.186;6.926;2022-08-16T03:51:34;22.37;65.12
65239;SHT30;51827;51.186;6.926;2022-08-16T03:52:34;22.34;65.20
65239;SHT30;51827;51.186;6.926;2022-08-16T03:53:37;22.34;65.19
65239;SHT30;51827;51.186;6.926;2022-08-16T03:54:40;22.38;65.19
65239;SHT30;51827;51.186;6.926;2022-08-16T03:55:40;22.37;65.15
65239;SHT30;51827;51.186;6.926;2022-08-16T03:56:41;22.32;65.31
65239;SHT30;51827;51.186;6.926;2022-08-16T03:57:41;22.35;65.26
65239;SHT30;51827;51.186;6.926;2022-08-16T03:58:41;22.37;65.21
65239;SHT30;51827;51.186;6.926;2022-08-16T03:59:41;22.28;65.42
65239;SHT30;51827;51.186;6.926;2022-08-16T04:00:41;22.32;65.32
65239;SHT30;51827;51.186;6.926;2022-08-16T04:01:43;22.31;65.34
65239;SHT30;51827;51.186;6.926;2022-08-16T04:02:43;22.28;65.45
65239;SHT30;51827;51.186;6.926;2022-08-16T04:03:43;22.21;65.59
65239;SHT30;51827;51.186;6.926;2022-08-16T04:04:44;22.18;65.69
65239;SHT30;51827;51.186;6.926;2022-08-16T04:05:45;22.17;65.66
65239;SHT30;51827;51.186;6.926;2022-08-16T04:06:48;22.14;65.73
65239;SHT30;51827;51.186;6.926;2022-08-16T04:07:48;22.14;65.79
65239;SHT30;51827;51.186;6.926;2022-08-16T04:08:48;22.05;65.93
65239;SHT30;51827;51.186;6.926;2022-08-16T04:09:49;22.10;65.85
65239;SHT30;51827;51.186;6.926;2022-08-16T04:10:49;22.11;65.75
65239;SHT30;51827;51.186;6.926;2022-08-16T04:11:50;22.11;65.73
65239;SHT30;51827;51.186;6.926;2022-08-16T04:12:50;22.15;65.62
65239;SHT30;51827;51.186;6.926;2022-08-16T04:13:50;22.10;65.77
65239;SHT30;51827;51.186;6.926;2022-08-16T04:14:50;22.08;65.78
65239;SHT30;51827;51.186;6.926;2022-08-16T04:15:51;22.14;65.66
65239;SHT30;51827;51.186;6.926;2022-08-16T04:16:51;22.15;65.64
65239;SHT30;51827;51.186;6.926;2022-08-16T04:17:51;22.12;65.71
65239;SHT30;51827;51.186;6.926;2022-08-16T04:18:51;22.14;65.65
65239;SHT30;51827;51.186;6.926;2022-08-16T04:19:51;22.15;65.61
65239;SHT30;51827;51.186;6.926;2022-08-16T04:20:52;22.17;65.54
65239;SHT30;51827;51.186;6.926;2022-08-16T04:21:52;22.18;65.47
65239;SHT30;51827;51.186;6.926;2022-08-16T04:22:52;22.21;65.41
65239;SHT30;51827;51.186;6.926;2022-08-16T04:23:53;22.18;65.54
65239;SHT30;51827;51.186;6.926;2022-08-16T04:24:53;22.17;65.58
65239;SHT30;51827;51.186;6.926;2022-08-16T04:25:53;22.17;65.49
65239;SHT30;51827;51.186;6.926;2022-08-16T04:26:53;22.18;65.45
65239;SHT30;51827;51.186;6.926;2022-08-16T04:27:53;22.20;65.42
65239;SHT30;51827;51.186;6.926;2022-08-16T04:28:54;22.21;65.36
65239;SHT30;51827;51.186;6.926;2022-08-16T04:29:54;22.17;65.36
65239;SHT30;51827;51.186;6.926;2022-08-16T04:30:54;22.11;65.57
65239;SHT30;51827;51.186;6.926;2022-08-16T04:31:54;22.14;65.65
65239;SHT30;51827;51.186;6.926;2022-08-16T04:32:57;22.15;65.60
65239;SHT30;51827;51.186;6.926;2022-08-16T04:33:58;22.14;65.61
65239;SHT30;51827;51.186;6.926;2022-08-16T04:34:58;22.12;65.63
65239;SHT30;51827;51.186;6.926;2022-08-16T04:35:58;22.15;65.48
65239;SHT30;51827;51.186;6.926;2022-08-16T04:36:58;22.17;65.49
65239;SHT30;51827;51.186;6.926;2022-08-16T04:37:58;22.14;65.51
65239;SHT30;51827;51.186;6.926;2022-08-16T04:38:59;22.14;65.63
65239;SHT30;51827;51.186;6.926;2022-08-16T04:39:59;22.11;65.65
65239;SHT30;51827;51.186;6.926;2022-08-16T04:40:59;22.11;65.77
65239;SHT30;51827;51.186;6.926;2022-08-16T04:41:59;22.11;65.75
65239;SHT30;51827;51.186;6.926;2022-08-16T04:42:59;22.12;65.69
65239;SHT30;51827;51.186;6.926;2022-08-16T04:44:00;22.14;65.69
65239;SHT30;51827;51.186;6.926;2022-08-16T04:45:00;22.14;65.70
65239;SHT30;51827;51.186;6.926;2022-08-16T04:46:00;22.11;65.73
65239;SHT30;51827;51.186;6.926;2022-08-16T04:47:00;22.15;65.64
65239;SHT30;51827;51.186;6.926;2022-08-16T04:48:00;22.07;65.77
65239;SHT30;51827;51.186;6.926;2022-08-16T04:49:00;22.08;65.74
65239;SHT30;51827;51.186;6.926;2022-08-16T04:50:06;22.12;65.78
65239;SHT30;51827;51.186;6.926;2022-08-16T04:51:08;22.15;65.75
65239;SHT30;51827;51.186;6.926;2022-08-16T04:52:08;22.12;65.65
65239;SHT30;51827;51.186;6.926;2022-08-16T04:53:08;22.17;65.58
65239;SHT30;51827;51.186;6.926;2022-08-16T04:54:09;22.15;65.57
65239;SHT30;51827;51.186;6.926;2022-08-16T04:55:11;22.20;65.51
65239;SHT30;51827;51.186;6.926;2022-08-16T04:56:11;22.20;65.56
65239;SHT30;51827;51.186;6.926;2022-08-16T04:57:12;22.20;65.48
65239;SHT30;51827;51.186;6.926;2022-08-16T04:58:12;22.21;65.48
65239;SHT30;51827;51.186;6.926;2022-08-16T04:59:12;22.18;65.59
65239;SHT30;51827;51.186;6.926;2022-08-16T05:00:18;22.18;65.59
65239;SHT30;51827;51.186;6.926;2022-08-16T05:01:18;22.20;65.49
65239;SHT30;51827;51.186;6.926;2022-08-16T05:02:18;22.20;65.54
65239;SHT30;51827;51.186;6.926;2022-08-16T05:03:19;22.20;65.48
65239;SHT30;51827;51.186;6.926;2022-08-16T05:04:19;22.20;65.49
65239;SHT30;51827;51.186;6.926;2022-08-16T05:05:22;22.20;65.54
65239;SHT30;51827;51.186;6.926;2022-08-16T05:06:22;22.18;65.53
65239;SHT30;51827;51.186;6.926;2022-08-16T05:07:23;22.21;65.47
65239;SHT30;51827;51.186;6.926;2022-08-16T05:08:26;22.22;65.43
65239;SHT30;51827;51.186;6.926;2022-08-16T05:09:26;22.27;65.33
65239;SHT30;51827;51.186;6.926;2022-08-16T05:10:27;22.30;65.27
65239;SHT30;51827;51.186;6.926;2022-08-16T05:11:27;22.30;65.16
65239;SHT30;51827;51.186;6.926;2022-08-16T05:12:27;22.31;65.10
65239;SHT30;51827;51.186;6.926;2022-08-16T05:13:28;22.34;65.01
65239;SHT30;51827;51.186;6.926;2022-08-16T05:14:28;22.38;64.96
65239;SHT30;51827;51.186;6.926;2022-08-16T05:15:28;22.40;64.89
65239;SHT30;51827;51.186;6.926;2022-08-16T05:16:29;22.41;64.76
65239;SHT30;51827;51.186;6.926;2022-08-16T05:17:32;22.42;64.72
65239;SHT30;51827;51.186;6.926;2022-08-16T05:18:35;22.44;64.70
65239;SHT30;51827;51.186;6.926;2022-08-16T05:19:35;22.48;64.61
65239;SHT30;51827;51.186;6.926;2022-08-16T05:20:39;22.47;64.58
65239;SHT30;51827;51.186;6.926;2022-08-16T05:21:39;22.49;64.53
65239;SHT30;51827;51.186;6.926;2022-08-16T05:22:39;22.49;64.46
65239;SHT30;51827;51.186;6.926;2022-08-16T05:23:42;22.52;64.40
65239;SHT30;51827;51.186;6.926;2022-08-16T05:24:43;22.52;64.37
65239;SHT30;51827;51.186;6.926;2022-08-16T05:25:43;22.56;64.28
65239;SHT30;51827;51.186;6.926;2022-08-16T05:26:43;22.55;64.24
65239;SHT30;51827;51.186;6.926;2022-08-16T05:27:44;22.56;64.20
65239;SHT30;51827;51.186;6.926;2022-08-16T05:28:47;22.56;64.19
65239;SHT30;51827;51.186;6.926;2022-08-16T05:29:47;22.56;64.11
65239;SHT30;51827;51.186;6.926;2022-08-16T05:30:48;22.59;64.04
65239;SHT30;51827;51.186;6.926;2022-08-16T05:31:48;22.61;64.03
65239;SHT30;51827;51.186;6.926;2022-08-16T05:32:48;22.58;63.96
65239;SHT30;51827;51.186;6.926;2022-08-16T05:33:48;22.62;63.92
65239;SHT30;51827;51.186;6.926;2022-08-16T05:34:48;22.62;63.91
65239;SHT30;51827;51.186;6.926;2022-08-16T05:35:49;22.66;63.85
65239;SHT30;51827;51.186;6.926;2022-08-16T05:36:49;22.65;63.92
65239;SHT30;51827;51.186;6.926;2022-08-16T05:37:49;22.65;63.90
65239;SHT30;51827;51.186;6.926;2022-08-16T05:38:50;22.66;63.83
65239;SHT30;51827;51.186;6.926;2022-08-16T05:39:50;22.68;63.79
65239;SHT30;51827;51.186;6.926;2022-08-16T05:40:50;22.66;63.82
65239;SHT30;51827;51.186;6.926;2022-08-16T05:41:51;22.65;63.77
65239;SHT30;51827;51.186;6.926;2022-08-16T05:42:52;22.68;63.71
65239;SHT30;51827;51.186;6.926;2022-08-16T05:43:55;22.69;63.69
65239;SHT30;51827;51.186;6.926;2022-08-16T05:44:55;22.71;63.68
65239;SHT30;51827;51.186;6.926;2022-08-16T05:45:56;22.72;63.63
65239;SHT30;51827;51.186;6.926;2022-08-16T05:46:57;22.69;63.60
65239;SHT30;51827;51.186;6.926;2022-08-16T05:47:58;22.71;63.53
65239;SHT30;51827;51.186;6.926;2022-08-16T05:48:58;22.72;63.49
65239;SHT30;51827;51.186;6.926;2022-08-16T05:49:58;22.71;63.51
65239;SHT30;51827;51.186;6.926;2022-08-16T05:51:02;22.73;63.42
65239;SHT30;51827;51.186;6.926;2022-08-16T05:52:02;22.73;63.42
65239;SHT30;51827;51.186;6.926;2022-08-16T05:53:02;22.75;63.46
65239;SHT30;51827;51.186;6.926;2022-08-16T05:54:03;22.75;63.40
65239;SHT30;51827;51.186;6.926;2022-08-16T05:55:03;22.78;63.39
65239;SHT30;51827;51.186;6.926;2022-08-16T05:56:04;22.76;63.42
65239;SHT30;51827;51.186;6.926;2022-08-16T05:57:06;22.76;63.34
65239;SHT30;51827;51.186;6.926;2022-08-16T05:58:06;22.78;63.34
65239;SHT30;51827;51.186;6.926;2022-08-16T05:59:10;22.78;63.33
65239;SHT30;51827;51.186;6.926;2022-08-16T06:00:11;22.78;63.31
65239;SHT30;51827;51.186;6.926;2022-08-16T06:01:11;22.78;63.22
65239;SHT30;51827;51.186;6.926;2022-08-16T06:02:11;22.81;63.22
65239;SHT30;51827;51.186;6.926;2022-08-16T06:03:15;22.81;63.22
65239;SHT30;51827;51.186;6.926;2022-08-16T06:04:15;22.81;63.25
65239;SHT30;51827;51.186;6.926;2022-08-16T06:05:15;22.81;63.21
65239;SHT30;51827;51.186;6.926;2022-08-16T06:06:15;22.81;63.22
65239;SHT30;51827;51.186;6.926;2022-08-16T06:07:16;22.82;63.15
65239;SHT30;51827;51.186;6.926;2022-08-16T06:08:16;22.84;63.18
65239;SHT30;51827;51.186;6.926;2022-08-16T06:09:16;22.82;63.15
65239;SHT30;51827;51.186;6.926;2022-08-16T06:10:17;22.82;63.15
65239;SHT30;51827;51.186;6.926;2022-08-16T06:11:17;22.84;63.11
65239;SHT30;51827;51.186;6.926;2022-08-16T06:12:17;22.82;63.08
65239;SHT30;51827;51.186;6.926;2022-08-16T06:13:18;22.82;63.06
65239;SHT30;51827;51.186;6.926;2022-08-16T06:14:18;22.84;63.07
65239;SHT30;51827;51.186;6.926;2022-08-16T06:15:18;22.85;63.04
65239;SHT30;51827;51.186;6.926;2022-08-16T06:16:22;22.86;63.01
65239;SHT30;51827;51.186;6.926;2022-08-16T06:17:22;22.85;62.98
65239;SHT30;51827;51.186;6.926;2022-08-16T06:18:25;22.86;62.95
65239;SHT30;51827;51.186;6.926;2022-08-16T06:19:25;22.86;62.95
65239;SHT30;51827;51.186;6.926;2022-08-16T06:20:26;22.88;62.96
65239;SHT30;51827;51.186;6.926;2022-08-16T06:21:27;22.86;62.94
65239;SHT30;51827;51.186;6.926;2022-08-16T06:22:27;22.88;62.95
65239;SHT30;51827;51.186;6.926;2022-08-16T06:23:30;22.86;62.87
65239;SHT30;51827;51.186;6.926;2022-08-16T06:24:30;22.86;62.88
65239;SHT30;51827;51.186;6.926;2022-08-16T06:25:31;22.89;62.87
65239;SHT30;51827;51.186;6.926;2022-08-16T06:26:31;22.86;62.93
65239;SHT30;51827;51.186;6.926;2022-08-16T06:27:31;22.88;62.85
65239;SHT30;51827;51.186;6.926;2022-08-16T06:28:32;22.89;62.80
65239;SHT30;51827;51.186;6.926;2022-08-16T06:29:32;22.88;62.77
65239;SHT30;51827;51.186;6.926;2022-08-16T06:30:32;22.91;62.75
65239;SHT30;51827;51.186;6.926;2022-08-16T06:31:32;22.91;62.76